sensor_id;sensor_type;location;lat;lon;timestamp;pressure;altitude;pressure_sealevel;temperature;humidity
43480;BME280;29067;35.492;-97.520;2022-10-28T00:01:20;97061.57;;;14.50;35.72
43480;BME280;29067;35.492;-97.520;2022-10-28T00:03:50;97078.64;;;13.26;36.79
43480;BME280;29067;35.492;-97.520;2022-10-28T00:06:21;97090.04;;;14.32;35.46
43480;BME280;29067;35.492;-97.520;2022-10-28T00:08:49;97103.70;;;13.63;35.56
43480;BME280;29067;35.492;-97.520;2022-10-28T00:11:20;97112.57;;;14.75;34.93
43480;BME280;29067;35.492;-97.520;2022-10-28T00:13:49;97120.37;;;14.79;34.52
43480;BME280;29067;35.492;-97.520;2022-10-28T00:16:18;97135.06;;;15.87;33.10
43480;BME280;29067;35.492;-97.520;2022-10-28T00:18:52;97144.73;;;15.68;33.43
43480;BME280;29067;35.492;-97.520;2022-10-28T00:21:26;97153.80;;;15.94;33.30
43480;BME280;29067;35.492;-97.520;2022-10-28T00:23:55;97158.04;;;15.73;33.21
43480;BME280;29067;35.492;-97.520;2022-10-28T00:26:24;97165.41;;;16.46;32.85
43480;BME280;29067;35.492;-97.520;2022-10-28T00:28:54;97162.58;;;15.68;33.12
43480;BME280;29067;35.492;-97.520;2022-10-28T00:31:23;97169.79;;;16.66;32.69
43480;BME280;29067;35.492;-97.520;2022-10-28T00:33:52;97172.26;;;15.41;33.57
43480;BME280;29067;35.492;-97.520;2022-10-28T00:36:22;97179.79;;;16.38;32.63
43480;BME280;29067;35.492;-97.520;2022-10-28T00:38:56;97180.33;;;15.91;34.01
43480;BME280;29067;35.492;-97.520;2022-10-28T00:41:31;97190.17;;;15.63;33.28
43480;BME280;29067;35.492;-97.520;2022-10-28T00:44:01;97196.83;;;16.69;32.54
43480;BME280;29067;35.492;-97.520;2022-10-28T00:46:36;97191.89;;;15.82;33.51
43480;BME280;29067;35.492;-97.520;2022-10-28T00:49:13;97202.89;;;16.37;33.58
43480;BME280;29067;35.492;-97.520;2022-10-28T00:51:44;97219.59;;;15.59;33.38
43480;BME280;29067;35.492;-97.520;2022-10-28T00:54:14;97227.22;;;16.71;32.64
43480;BME280;29067;35.492;-97.520;2022-10-28T00:56:47;97225.59;;;15.70;33.62
43480;BME280;29067;35.492;-97.520;2022-10-28T00:59:19;97226.09;;;15.47;33.39
43480;BME280;29067;35.492;-97.520;2022-10-28T01:01:48;97219.57;;;15.02;33.78
43480;BME280;29067;35.492;-97.520;2022-10-28T01:04:16;97224.13;;;14.17;34.27
43480;BME280;29067;35.492;-97.520;2022-10-28T01:06:46;97229.72;;;15.66;33.72
43480;BME280;29067;35.492;-97.520;2022-10-28T01:09:15;97234.87;;;15.30;33.49
43480;BME280;29067;35.492;-97.520;2022-10-28T01:11:53;97244.33;;;14.76;33.98
43480;BME280;29067;35.492;-97.520;2022-10-28T01:14:33;97249.29;;;14.80;33.90
43480;BME280;29067;35.492;-97.520;2022-10-28T01:17:16;97248.23;;;15.82;33.65
43480;BME280;29067;35.492;-97.520;2022-10-28T01:21:13;97253.80;;;15.01;34.00
43480;BME280;29067;35.492;-97.520;2022-10-28T01:23:58;97245.86;;;13.41;35.08
43480;BME280;29067;35.492;-97.520;2022-10-28T01:26:55;97220.89;;;13.44;35.94
43480;BME280;29067;35.492;-97.520;2022-10-28T01:29:40;97220.41;;;13.20;36.40
43480;BME280;29067;35.492;-97.520;2022-10-28T01:32:17;97234.59;;;13.47;35.97
43480;BME280;29067;35.492;-97.520;2022-10-28T01:34:58;97240.44;;;13.48;36.10
43480;BME280;29067;35.492;-97.520;2022-10-28T01:37:33;97248.76;;;13.90;36.03
43480;BME280;29067;35.492;-97.520;2022-10-28T01:40:08;97249.03;;;14.20;35.91
43480;BME280;29067;35.492;-97.520;2022-10-28T01:42:43;97252.34;;;14.17;35.57
43480;BME280;29067;35.492;-97.520;2022-10-28T01:45:21;97261.63;;;14.29;35.90
43480;BME280;29067;35.492;-97.520;2022-10-28T01:47:55;97271.89;;;13.12;36.81
43480;BME280;29067;35.492;-97.520;2022-10-28T01:50:29;97271.17;;;14.38;35.43
43480;BME280;29067;35.492;-97.520;2022-10-28T01:53:09;97281.89;;;13.37;36.20
43480;BME280;29067;35.492;-97.520;2022-10-28T01:55:41;97283.44;;;13.47;36.33
43480;BME280;29067;35.492;-97.520;2022-10-28T01:58:16;97279.86;;;12.86;36.32
43480;BME280;29067;35.492;-97.520;2022-10-28T02:00:47;97279.43;;;14.25;35.88
43480;BME280;29067;35.492;-97.520;2022-10-28T02:03:16;97287.07;;;13.82;36.22
43480;BME280;29067;35.492;-97.520;2022-10-28T02:05:46;97297.19;;;13.04;37.10
43480;BME280;29067;35.492;-97.520;2022-10-28T02:09:27;97302.37;;;13.19;37.24
43480;BME280;29067;35.492;-97.520;2022-10-28T02:12:10;97305.70;;;10.88;38.83
43480;BME280;29067;35.492;-97.520;2022-10-28T02:14:56;97307.24;;;13.94;36.92
43480;BME280;29067;35.492;-97.520;2022-10-28T02:17:44;97324.88;;;13.90;36.06
43480;BME280;29067;35.492;-97.520;2022-10-28T02:20:29;97352.45;;;14.14;35.69
43480;BME280;29067;35.492;-97.520;2022-10-28T02:23:10;97358.48;;;13.16;36.26
43480;BME280;29067;35.492;-97.520;2022-10-28T02:25:47;97360.33;;;13.31;36.35
43480;BME280;29067;35.492;-97.520;2022-10-28T02:28:23;97362.48;;;15.19;35.79
43480;BME280;29067;35.492;-97.520;2022-10-28T02:30:59;97365.54;;;13.75;35.91
43480;BME280;29067;35.492;-97.520;2022-10-28T02:33:34;97365.27;;;14.09;35.59
43480;BME280;29067;35.492;-97.520;2022-10-28T02:36:05;97378.54;;;13.23;36.64
43480;BME280;29067;35.492;-97.520;2022-10-28T02:38:37;97375.97;;;12.94;36.28
43480;BME280;29067;35.492;-97.520;2022-10-28T02:41:10;97385.23;;;13.08;37.11
43480;BME280;29067;35.492;-97.520;2022-10-28T02:43:42;97385.76;;;13.68;37.51
43480;BME280;29067;35.492;-97.520;2022-10-28T02:46:12;97385.49;;;12.42;37.29
43480;BME280;29067;35.492;-97.520;2022-10-28T02:48:45;97391.47;;;12.51;37.51
43480;BME280;29067;35.492;-97.520;2022-10-28T02:51:18;97384.55;;;13.09;37.48
43480;BME280;29067;35.492;-97.520;2022-10-28T02:53:58;97379.72;;;11.73;38.71
43480;BME280;29067;35.492;-97.520;2022-10-28T02:56:30;97396.22;;;13.38;37.37
43480;BME280;29067;35.492;-97.520;2022-10-28T02:59:00;97415.83;;;13.42;36.60
43480;BME280;29067;35.492;-97.520;2022-10-28T03:01:28;97421.11;;;12.89;37.30
43480;BME280;29067;35.492;-97.520;2022-10-28T03:03:56;97417.50;;;13.76;37.93
43480;BME280;29067;35.492;-97.520;2022-10-28T03:06:24;97415.27;;;14.22;36.06
43480;BME280;29067;35.492;-97.520;2022-10-28T03:08:56;97417.87;;;13.70;36.27
43480;BME280;29067;35.492;-97.520;2022-10-28T03:11:24;97418.73;;;12.68;37.19
43480;BME280;29067;35.492;-97.520;2022-10-28T03:13:51;97424.48;;;11.43;39.03
43480;BME280;29067;35.492;-97.520;2022-10-28T03:16:19;97417.96;;;11.78;38.27
43480;BME280;29067;35.492;-97.520;2022-10-28T03:18:47;97418.27;;;12.07;38.47
43480;BME280;29067;35.492;-97.520;2022-10-28T03:21:16;97435.65;;;12.11;37.95
43480;BME280;29067;35.492;-97.520;2022-10-28T03:23:43;97447.87;;;12.36;37.71
43480;BME280;29067;35.492;-97.520;2022-10-28T03:26:12;97454.83;;;12.92;37.11
43480;BME280;29067;35.492;-97.520;2022-10-28T03:28:40;97460.56;;;14.12;36.68
43480;BME280;29067;35.492;-97.520;2022-10-28T03:31:07;97456.58;;;14.49;35.82
43480;BME280;29067;35.492;-97.520;2022-10-28T03:33:35;97457.52;;;13.08;36.58
43480;BME280;29067;35.492;-97.520;2022-10-28T03:36:03;97468.98;;;14.21;36.05
43480;BME280;29067;35.492;-97.520;2022-10-28T03:38:31;97478.90;;;12.82;37.29
43480;BME280;29067;35.492;-97.520;2022-10-28T03:40:59;97482.09;;;14.26;36.38
43480;BME280;29067;35.492;-97.520;2022-10-28T03:43:26;97484.25;;;13.82;37.55
43480;BME280;29067;35.492;-97.520;2022-10-28T03:45:55;97478.86;;;12.30;38.23
43480;BME280;29067;35.492;-97.520;2022-10-28T03:48:24;97477.01;;;13.60;37.99
43480;BME280;29067;35.492;-97.520;2022-10-28T03:50:52;97476.59;;;12.64;39.44
43480;BME280;29067;35.492;-97.520;2022-10-28T03:53:22;97480.24;;;13.51;38.80
43480;BME280;29067;35.492;-97.520;2022-10-28T03:55:54;97476.54;;;13.40;38.89
43480;BME280;29067;35.492;-97.520;2022-10-28T03:58:22;97472.50;;;12.54;39.89
43480;BME280;29067;35.492;-97.520;2022-10-28T04:00:51;97467.48;;;11.37;40.17
43480;BME280;29067;35.492;-97.520;2022-10-28T04:03:21;97468.79;;;11.50;40.71
43480;BME280;29067;35.492;-97.520;2022-10-28T04:05:55;97468.70;;;11.57;39.61
43480;BME280;29067;35.492;-97.520;2022-10-28T04:08:23;97467.25;;;11.50;40.76
43480;BME280;29067;35.492;-97.520;2022-10-28T04:10:51;97469.50;;;10.94;41.32
43480;BME280;29067;35.492;-97.520;2022-10-28T04:13:19;97466.29;;;12.13;39.98
43480;BME280;29067;35.492;-97.520;2022-10-28T04:15:46;97472.34;;;10.74;40.76
43480;BME280;29067;35.492;-97.520;2022-10-28T04:18:15;97468.52;;;12.22;40.66
43480;BME280;29067;35.492;-97.520;2022-10-28T04:20:44;97471.91;;;12.27;39.91
43480;BME280;29067;35.492;-97.520;2022-10-28T04:23:14;97476.84;;;11.30;40.18
43480;BME280;29067;35.492;-97.520;2022-10-28T04:25:43;97484.94;;;11.92;39.79
43480;BME280;29067;35.492;-97.520;2022-10-28T04:28:11;97495.05;;;11.21;40.33
43480;BME280;29067;35.492;-97.520;2022-10-28T04:30:39;97501.08;;;11.78;40.09
43480;BME280;29067;35.492;-97.520;2022-10-28T04:33:12;97504.23;;;12.78;39.36
43480;BME280;29067;35.492;-97.520;2022-10-28T04:35:40;97507.44;;;12.00;39.87
43480;BME280;29067;35.492;-97.520;2022-10-28T04:38:08;97517.56;;;12.01;40.94
43480;BME280;29067;35.492;-97.520;2022-10-28T04:40:36;97518.60;;;13.85;40.35
43480;BME280;29067;35.492;-97.520;2022-10-28T04:43:03;97523.38;;;12.69;41.36
43480;BME280;29067;35.492;-97.520;2022-10-28T04:45:31;97526.78;;;12.87;41.05
43480;BME280;29067;35.492;-97.520;2022-10-28T04:48:00;97527.85;;;11.39;41.83
43480;BME280;29067;35.492;-97.520;2022-10-28T04:50:33;97526.88;;;12.21;43.02
43480;BME280;29067;35.492;-97.520;2022-10-28T04:53:01;97526.43;;;11.99;43.91
43480;BME280;29067;35.492;-97.520;2022-10-28T04:55:29;97528.23;;;11.37;43.65
43480;BME280;29067;35.492;-97.520;2022-10-28T04:58:08;97529.39;;;11.10;43.69
43480;BME280;29067;35.492;-97.520;2022-10-28T05:00:36;97527.87;;;11.90;43.34
43480;BME280;29067;35.492;-97.520;2022-10-28T05:03:04;97531.71;;;12.55;43.40
43480;BME280;29067;35.492;-97.520;2022-10-28T05:05:33;97529.19;;;12.03;43.70
43480;BME280;29067;35.492;-97.520;2022-10-28T05:08:00;97528.62;;;12.47;45.23
43480;BME280;29067;35.492;-97.520;2022-10-28T05:10:28;97530.89;;;13.90;45.29
43480;BME280;29067;35.492;-97.520;2022-10-28T05:12:56;97526.17;;;12.71;46.81
43480;BME280;29067;35.492;-97.520;2022-10-28T05:15:24;97528.60;;;12.29;42.30
43480;BME280;29067;35.492;-97.520;2022-10-28T05:17:54;97532.09;;;12.73;45.00
43480;BME280;29067;35.492;-97.520;2022-10-28T05:20:22;97528.87;;;11.79;43.54
43480;BME280;29067;35.492;-97.520;2022-10-28T05:22:52;97518.61;;;11.71;43.03
43480;BME280;29067;35.492;-97.520;2022-10-28T05:25:25;97522.93;;;10.78;44.72
43480;BME280;29067;35.492;-97.520;2022-10-28T05:27:56;97517.52;;;11.11;43.70
43480;BME280;29067;35.492;-97.520;2022-10-28T05:30:29;97509.31;;;10.85;45.14
43480;BME280;29067;35.492;-97.520;2022-10-28T05:32:59;97510.61;;;9.19;46.31
43480;BME280;29067;35.492;-97.520;2022-10-28T05:35:28;97501.24;;;10.34;45.57
43480;BME280;29067;35.492;-97.520;2022-10-28T05:37:57;97501.81;;;11.26;44.33
43480;BME280;29067;35.492;-97.520;2022-10-28T05:40:25;97496.98;;;10.74;45.55
43480;BME280;29067;35.492;-97.520;2022-10-28T05:42:54;97495.23;;;11.20;45.35
43480;BME280;29067;35.492;-97.520;2022-10-28T05:45:22;97492.38;;;11.50;44.51
43480;BME280;29067;35.492;-97.520;2022-10-28T05:47:55;97479.30;;;11.74;44.02
43480;BME280;29067;35.492;-97.520;2022-10-28T05:50:23;97473.93;;;12.28;43.30
43480;BME280;29067;35.492;-97.520;2022-10-28T05:52:54;97475.91;;;11.52;44.32
43480;BME280;29067;35.492;-97.520;2022-10-28T05:55:23;97478.16;;;11.52;44.15
43480;BME280;29067;35.492;-97.520;2022-10-28T05:57:52;97485.26;;;10.70;43.85
43480;BME280;29067;35.492;-97.520;2022-10-28T06:00:22;97488.81;;;11.46;43.49
43480;BME280;29067;35.492;-97.520;2022-10-28T06:03:02;97498.08;;;11.19;43.63
43480;BME280;29067;35.492;-97.520;2022-10-28T06:07:23;97515.42;;;12.06;42.94
43480;BME280;29067;35.492;-97.520;2022-10-28T06:09:52;97528.09;;;11.13;43.68
43480;BME280;29067;35.492;-97.520;2022-10-28T06:12:20;97533.13;;;11.63;43.39
43480;BME280;29067;35.492;-97.520;2022-10-28T06:14:47;97536.63;;;12.50;42.32
43480;BME280;29067;35.492;-97.520;2022-10-28T06:17:15;97542.19;;;11.36;42.96
43480;BME280;29067;35.492;-97.520;2022-10-28T06:19:43;97547.67;;;12.45;43.49
43480;BME280;29067;35.492;-97.520;2022-10-28T06:22:11;97553.79;;;12.68;41.92
43480;BME280;29067;35.492;-97.520;2022-10-28T06:24:39;97553.27;;;13.78;42.30
43480;BME280;29067;35.492;-97.520;2022-10-28T06:27:07;97553.35;;;13.43;40.43
43480;BME280;29067;35.492;-97.520;2022-10-28T06:29:35;97551.32;;;13.33;41.37
43480;BME280;29067;35.492;-97.520;2022-10-28T06:32:03;97551.60;;;13.91;40.17
43480;BME280;29067;35.492;-97.520;2022-10-28T06:34:31;97554.52;;;11.48;42.25
43480;BME280;29067;35.492;-97.520;2022-10-28T06:36:59;97551.43;;;12.68;41.73
43480;BME280;29067;35.492;-97.520;2022-10-28T06:39:27;97547.49;;;12.70;41.37
43480;BME280;29067;35.492;-97.520;2022-10-28T06:41:55;97545.99;;;12.50;42.01
43480;BME280;29067;35.492;-97.520;2022-10-28T06:44:23;97545.05;;;12.19;43.25
43480;BME280;29067;35.492;-97.520;2022-10-28T06:46:50;97542.35;;;12.02;43.43
43480;BME280;29067;35.492;-97.520;2022-10-28T06:49:18;97547.58;;;11.96;43.96
43480;BME280;29067;35.492;-97.520;2022-10-28T06:51:46;97550.08;;;12.42;42.92
43480;BME280;29067;35.492;-97.520;2022-10-28T06:54:14;97558.00;;;12.78;43.09
43480;BME280;29067;35.492;-97.520;2022-10-28T06:56:41;97563.12;;;13.50;41.75
43480;BME280;29067;35.492;-97.520;2022-10-28T06:59:09;97570.31;;;13.56;42.55
43480;BME280;29067;35.492;-97.520;2022-10-28T07:01:37;97579.51;;;12.63;42.28
43480;BME280;29067;35.492;-97.520;2022-10-28T07:04:07;97580.09;;;13.85;42.44
43480;BME280;29067;35.492;-97.520;2022-10-28T07:06:37;97581.54;;;13.42;42.48
43480;BME280;29067;35.492;-97.520;2022-10-28T07:09:05;97582.23;;;12.76;42.31
43480;BME280;29067;35.492;-97.520;2022-10-28T07:11:34;97587.14;;;12.14;45.11
43480;BME280;29067;35.492;-97.520;2022-10-28T07:14:07;97599.91;;;12.89;44.80
43480;BME280;29067;35.492;-97.520;2022-10-28T07:16:35;97611.60;;;13.22;45.27
43480;BME280;29067;35.492;-97.520;2022-10-28T07:19:03;97618.80;;;13.42;45.65
43480;BME280;29067;35.492;-97.520;2022-10-28T07:21:31;97627.39;;;13.92;46.60
43480;BME280;29067;35.492;-97.520;2022-10-28T07:23:59;97639.52;;;12.62;47.71
43480;BME280;29067;35.492;-97.520;2022-10-28T07:26:27;97649.08;;;11.84;50.32
43480;BME280;29067;35.492;-97.520;2022-10-28T07:28:54;97651.38;;;12.02;49.91
43480;BME280;29067;35.492;-97.520;2022-10-28T07:31:23;97649.98;;;13.34;50.31
43480;BME280;29067;35.492;-97.520;2022-10-28T07:33:51;97657.14;;;12.73;53.93
43480;BME280;29067;35.492;-97.520;2022-10-28T07:36:19;97662.49;;;12.58;53.39
43480;BME280;29067;35.492;-97.520;2022-10-28T07:38:49;97674.42;;;11.73;55.03
43480;BME280;29067;35.492;-97.520;2022-10-28T07:41:18;97678.88;;;11.36;57.53
43480;BME280;29067;35.492;-97.520;2022-10-28T07:43:47;97689.33;;;11.68;58.84
43480;BME280;29067;35.492;-97.520;2022-10-28T07:46:16;97701.15;;;12.16;58.16
43480;BME280;29067;35.492;-97.520;2022-10-28T07:48:44;97710.45;;;11.79;60.95
43480;BME280;29067;35.492;-97.520;2022-10-28T07:51:13;97720.65;;;10.60;62.34
43480;BME280;29067;35.492;-97.520;2022-10-28T07:53:41;97726.63;;;10.88;65.14
43480;BME280;29067;35.492;-97.520;2022-10-28T07:56:10;97730.18;;;10.32;66.21
43480;BME280;29067;35.492;-97.520;2022-10-28T07:58:39;97731.06;;;11.17;64.74
43480;BME280;29067;35.492;-97.520;2022-10-28T08:01:10;97736.18;;;12.17;62.00
43480;BME280;29067;35.492;-97.520;2022-10-28T08:03:39;97742.48;;;12.28;58.68
43480;BME280;29067;35.492;-97.520;2022-10-28T08:06:10;97745.39;;;12.24;59.35
43480;BME280;29067;35.492;-97.520;2022-10-28T08:08:39;97750.16;;;10.07;67.97
43480;BME280;29067;35.492;-97.520;2022-10-28T08:11:10;97739.87;;;12.00;60.23
43480;BME280;29067;35.492;-97.520;2022-10-28T08:13:38;97729.84;;;12.06;60.74
43480;BME280;29067;35.492;-97.520;2022-10-28T08:16:07;97743.91;;;11.24;66.53
43480;BME280;29067;35.492;-97.520;2022-10-28T08:18:35;97745.12;;;9.66;66.38
43480;BME280;29067;35.492;-97.520;2022-10-28T08:21:05;97734.65;;;10.85;66.17
43480;BME280;29067;35.492;-97.520;2022-10-28T08:23:33;97731.00;;;10.97;61.11
43480;BME280;29067;35.492;-97.520;2022-10-28T08:26:01;97718.95;;;12.41;59.83
43480;BME280;29067;35.492;-97.520;2022-10-28T08:28:29;97720.79;;;11.34;59.02
43480;BME280;29067;35.492;-97.520;2022-10-28T08:31:00;97721.43;;;11.91;59.25
43480;BME280;29067;35.492;-97.520;2022-10-28T08:33:30;97720.17;;;12.15;60.05
43480;BME280;29067;35.492;-97.520;2022-10-28T08:35:59;97712.92;;;12.90;59.82
43480;BME280;29067;35.492;-97.520;2022-10-28T08:38:26;97710.73;;;13.20;59.23
43480;BME280;29067;35.492;-97.520;2022-10-28T08:41:00;97708.57;;;13.56;58.14
43480;BME280;29067;35.492;-97.520;2022-10-28T08:43:45;97708.15;;;12.77;59.37
43480;BME280;29067;35.492;-97.520;2022-10-28T08:46:20;97705.68;;;12.98;58.49
43480;BME280;29067;35.492;-97.520;2022-10-28T08:48:52;97705.70;;;12.12;60.53
43480;BME280;29067;35.492;-97.520;2022-10-28T08:51:32;97708.90;;;11.32;62.36
43480;BME280;29067;35.492;-97.520;2022-10-28T08:54:05;97701.11;;;12.38;61.43
43480;BME280;29067;35.492;-97.520;2022-10-28T08:56:36;97703.95;;;11.63;63.74
43480;BME280;29067;35.492;-97.520;2022-10-28T08:59:08;97706.76;;;11.66;62.80
43480;BME280;29067;35.492;-97.520;2022-10-28T09:17:45;97721.95;;;8.79;74.20
43480;BME280;29067;35.492;-97.520;2022-10-28T09:20:19;97714.22;;;7.21;73.80
43480;BME280;29067;35.492;-97.520;2022-10-28T09:22:55;97701.76;;;8.99;68.05
43480;BME280;29067;35.492;-97.520;2022-10-28T09:25:29;97693.55;;;9.26;68.85
43480;BME280;29067;35.492;-97.520;2022-10-28T09:28:16;97694.81;;;9.41;66.90
43480;BME280;29067;35.492;-97.520;2022-10-28T09:30:54;97697.90;;;7.86;76.97
43480;BME280;29067;35.492;-97.520;2022-10-28T09:33:43;97690.58;;;7.78;78.69
43480;BME280;29067;35.492;-97.520;2022-10-28T09:36:17;97687.20;;;9.18;75.60
43480;BME280;29067;35.492;-97.520;2022-10-28T09:38:51;97685.98;;;8.68;75.00
43480;BME280;29067;35.492;-97.520;2022-10-28T09:41:23;97682.15;;;8.34;77.35
43480;BME280;29067;35.492;-97.520;2022-10-28T09:43:55;97677.20;;;8.45;76.33
43480;BME280;29067;35.492;-97.520;2022-10-28T09:46:27;97675.62;;;7.99;78.67
43480;BME280;29067;35.492;-97.520;2022-10-28T09:49:01;97678.20;;;7.89;83.46
43480;BME280;29067;35.492;-97.520;2022-10-28T09:51:33;97675.08;;;7.15;82.05
43480;BME280;29067;35.492;-97.520;2022-10-28T09:54:08;97671.89;;;8.22;78.33
43480;BME280;29067;35.492;-97.520;2022-10-28T09:56:36;97677.54;;;7.37;79.41
43480;BME280;29067;35.492;-97.520;2022-10-28T09:59:14;97679.92;;;7.57;81.27
43480;BME280;29067;35.492;-97.520;2022-10-28T10:01:43;97680.95;;;7.28;81.32
43480;BME280;29067;35.492;-97.520;2022-10-28T10:04:17;97682.19;;;7.05;85.63
43480;BME280;29067;35.492;-97.520;2022-10-28T10:06:49;97686.89;;;7.77;83.43
43480;BME280;29067;35.492;-97.520;2022-10-28T10:09:21;97689.70;;;7.64;81.78
43480;BME280;29067;35.492;-97.520;2022-10-28T10:11:52;97688.57;;;7.97;83.59
43480;BME280;29067;35.492;-97.520;2022-10-28T10:14:27;97690.89;;;7.42;84.19
43480;BME280;29067;35.492;-97.520;2022-10-28T10:17:00;97693.01;;;7.33;85.34
43480;BME280;29067;35.492;-97.520;2022-10-28T10:20:09;97699.51;;;7.55;82.94
43480;BME280;29067;35.492;-97.520;2022-10-28T10:22:38;97706.72;;;7.14;86.60
43480;BME280;29067;35.492;-97.520;2022-10-28T10:25:23;97712.75;;;7.34;87.37
43480;BME280;29067;35.492;-97.520;2022-10-28T10:27:58;97715.16;;;6.67;91.86
43480;BME280;29067;35.492;-97.520;2022-10-28T10:30:31;97715.43;;;6.70;91.99
43480;BME280;29067;35.492;-97.520;2022-10-28T10:33:00;97720.95;;;6.27;93.57
43480;BME280;29067;35.492;-97.520;2022-10-28T10:35:30;97713.80;;;6.27;95.18
43480;BME280;29067;35.492;-97.520;2022-10-28T10:38:00;97705.32;;;5.79;93.93
43480;BME280;29067;35.492;-97.520;2022-10-28T10:40:34;97697.49;;;6.67;95.32
43480;BME280;29067;35.492;-97.520;2022-10-28T10:43:24;97695.80;;;6.21;97.31
43480;BME280;29067;35.492;-97.520;2022-10-28T10:46:02;97697.06;;;6.59;91.81
43480;BME280;29067;35.492;-97.520;2022-10-28T10:48:31;97697.92;;;6.76;96.31
43480;BME280;29067;35.492;-97.520;2022-10-28T10:51:07;97698.58;;;6.14;98.10
43480;BME280;29067;35.492;-97.520;2022-10-28T10:53:36;97699.79;;;6.51;97.82
43480;BME280;29067;35.492;-97.520;2022-10-28T10:56:08;97696.18;;;6.53;93.79
43480;BME280;29067;35.492;-97.520;2022-10-28T10:58:39;97696.81;;;5.86;97.80
43480;BME280;29067;35.492;-97.520;2022-10-28T11:03:00;97707.36;;;6.19;92.55
43480;BME280;29067;35.492;-97.520;2022-10-28T11:05:30;97707.67;;;6.78;87.53
43480;BME280;29067;35.492;-97.520;2022-10-28T11:08:01;97710.49;;;7.41;88.88
43480;BME280;29067;35.492;-97.520;2022-10-28T11:10:31;97711.80;;;6.93;89.70
43480;BME280;29067;35.492;-97.520;2022-10-28T11:13:02;97711.21;;;5.04;97.63
43480;BME280;29067;35.492;-97.520;2022-10-28T11:15:31;97711.19;;;6.24;93.72
43480;BME280;29067;35.492;-97.520;2022-10-28T11:18:02;97715.39;;;6.29;99.28
43480;BME280;29067;35.492;-97.520;2022-10-28T11:20:39;97716.87;;;7.39;95.18
43480;BME280;29067;35.492;-97.520;2022-10-28T11:23:23;97714.11;;;6.09;93.45
43480;BME280;29067;35.492;-97.520;2022-10-28T11:25:57;97702.36;;;6.11;91.45
43480;BME280;29067;35.492;-97.520;2022-10-28T11:29:06;97692.26;;;7.10;94.14
43480;BME280;29067;35.492;-97.520;2022-10-28T11:31:47;97700.54;;;6.56;90.69
43480;BME280;29067;35.492;-97.520;2022-10-28T11:34:32;97698.03;;;6.43;89.75
43480;BME280;29067;35.492;-97.520;2022-10-28T11:37:07;97687.64;;;7.74;84.49
43480;BME280;29067;35.492;-97.520;2022-10-28T11:39:48;97688.46;;;7.41;86.80
43480;BME280;29067;35.492;-97.520;2022-10-28T11:42:29;97695.56;;;7.08;87.39
43480;BME280;29067;35.492;-97.520;2022-10-28T11:45:09;97703.66;;;6.31;90.95
43480;BME280;29067;35.492;-97.520;2022-10-28T11:47:59;97701.36;;;6.07;92.46
43480;BME280;29067;35.492;-97.520;2022-10-28T11:50:42;97695.74;;;6.68;91.84
43480;BME280;29067;35.492;-97.520;2022-10-28T11:54:29;97681.04;;;7.37;83.64
43480;BME280;29067;35.492;-97.520;2022-10-28T11:57:00;97678.92;;;7.57;85.84
43480;BME280;29067;35.492;-97.520;2022-10-28T11:59:50;97682.88;;;7.47;86.19
43480;BME280;29067;35.492;-97.520;2022-10-28T12:02:38;97682.30;;;8.27;81.31
43480;BME280;29067;35.492;-97.520;2022-10-28T12:05:17;97681.61;;;8.52;78.78
43480;BME280;29067;35.492;-97.520;2022-10-28T12:08:01;97674.05;;;8.03;80.61
43480;BME280;29067;35.492;-97.520;2022-10-28T12:10:39;97669.95;;;7.42;80.38
43480;BME280;29067;35.492;-97.520;2022-10-28T12:13:15;97679.11;;;8.15;75.62
43480;BME280;29067;35.492;-97.520;2022-10-28T12:15:56;97679.72;;;8.16;74.77
43480;BME280;29067;35.492;-97.520;2022-10-28T12:18:31;97680.63;;;8.66;74.76
43480;BME280;29067;35.492;-97.520;2022-10-28T12:21:10;97686.61;;;10.24;71.64
43480;BME280;29067;35.492;-97.520;2022-10-28T12:23:42;97698.61;;;9.14;73.14
43480;BME280;29067;35.492;-97.520;2022-10-28T12:26:16;97712.15;;;8.81;72.24
43480;BME280;29067;35.492;-97.520;2022-10-28T12:28:50;97722.72;;;9.66;69.49
43480;BME280;29067;35.492;-97.520;2022-10-28T12:31:24;97737.81;;;9.53;69.27
43480;BME280;29067;35.492;-97.520;2022-10-28T12:33:55;97753.75;;;9.01;72.94
43480;BME280;29067;35.492;-97.520;2022-10-28T12:36:32;97765.72;;;10.66;68.52
43480;BME280;29067;35.492;-97.520;2022-10-28T12:39:10;97771.30;;;8.59;73.02
43480;BME280;29067;35.492;-97.520;2022-10-28T12:41:46;97774.45;;;8.42;79.93
43480;BME280;29067;35.492;-97.520;2022-10-28T12:44:26;97780.86;;;8.44;75.89
43480;BME280;29067;35.492;-97.520;2022-10-28T12:47:01;97783.71;;;9.25;71.72
43480;BME280;29067;35.492;-97.520;2022-10-28T12:49:38;97792.91;;;9.27;69.84
43480;BME280;29067;35.492;-97.520;2022-10-28T12:52:18;97806.70;;;7.90;74.52
43480;BME280;29067;35.492;-97.520;2022-10-28T12:54:55;97808.63;;;9.12;70.97
43480;BME280;29067;35.492;-97.520;2022-10-28T12:57:25;97819.35;;;9.02;73.54
43480;BME280;29067;35.492;-97.520;2022-10-28T13:00:05;97822.42;;;8.67;70.87
43480;BME280;29067;35.492;-97.520;2022-10-28T13:02:42;97830.31;;;8.00;73.47
43480;BME280;29067;35.492;-97.520;2022-10-28T13:05:20;97831.51;;;7.66;77.36
43480;BME280;29067;35.492;-97.520;2022-10-28T13:08:14;97829.91;;;7.90;74.38
43480;BME280;29067;35.492;-97.520;2022-10-28T13:11:02;97836.90;;;6.94;79.32
43480;BME280;29067;35.492;-97.520;2022-10-28T13:13:40;97833.28;;;8.15;75.95
43480;BME280;29067;35.492;-97.520;2022-10-28T13:16:28;97830.03;;;8.93;72.17
43480;BME280;29067;35.492;-97.520;2022-10-28T13:19:15;97830.91;;;9.11;69.94
43480;BME280;29067;35.492;-97.520;2022-10-28T13:22:08;97820.92;;;9.20;70.14
43480;BME280;29067;35.492;-97.520;2022-10-28T13:24:51;97813.60;;;8.38;69.27
43480;BME280;29067;35.492;-97.520;2022-10-28T13:27:22;97813.46;;;7.85;72.53
43480;BME280;29067;35.492;-97.520;2022-10-28T13:29:52;97810.09;;;8.00;74.16
43480;BME280;29067;35.492;-97.520;2022-10-28T13:32:31;97812.17;;;8.42;73.87
43480;BME280;29067;35.492;-97.520;2022-10-28T13:35:08;97801.04;;;9.69;70.52